Airport View

Enter AWOS ICAO identifier for current METAR.

ex. KFNL

K6B9 022315Z AUTO 00000KT 10SM FEW049 SCT070 19/11 A2981 RMK AO2

2 Jun 2020 23:17

Frequency: 120.125

Phone: 315-685-5790

Other Area AWOS: KSYR - KN03 - KITH - KFZY

TAF KSYR 021738Z 0218/0318 22007KT P6SM OVC050 FM030300 VRB04KT P6SM -SHRA OVC030 FM030800 VRB03KT P6SM BKN018 FM031600 28008KT P6SM BKN024 FM031700 28008KT P6SM BKN035